Time;durP1;ratioP1;P1;durP2;ratioP2;P2;SDS_P1;SDS_P2;PMS_P1;PMS_P2;Temp;Humidity;BMP_temperature;BMP_pressure;BME280_temperature;BME280_humidity;BME280_pressure;Samples;Min_cycle;Max_cycle;Signal;HPM_P1;HPM_P2
2022/09/21 00:01:08;;;;;;;4.10;1.95;;;11.80;99.90;;;;;;5083710;28;20354;-71
2022/09/21 00:03:34;;;;;;;3.53;2.03;;;11.80;99.90;;;;;;5065818;28;20172;-70
2022/09/21 00:06:11;;;;;;;4.47;2.00;;;11.70;99.90;;;;;;5080708;28;20184;-71
2022/09/21 00:08:40;;;;;;;3.75;2.10;;;11.70;99.90;;;;;;5078154;28;20180;-71
2022/09/21 00:11:06;;;;;;;2.28;1.90;;;11.70;99.90;;;;;;5071683;28;20199;-71
2022/09/21 00:13:36;;;;;;;4.20;2.20;;;11.60;99.90;;;;;;5077369;28;20191;-75
2022/09/21 00:16:05;;;;;;;2.30;1.73;;;11.60;99.90;;;;;;5075883;28;20272;-77
2022/09/21 00:18:32;;;;;;;4.37;2.10;;;11.60;99.90;;;;;;5082280;28;20206;-78
2022/09/21 00:21:01;;;;;;;4.10;1.92;;;11.50;99.90;;;;;;5080276;28;20225;-79
2022/09/21 00:23:27;;;;;;;4.47;2.08;;;11.50;99.90;;;;;;5079583;28;20196;-78
2022/09/21 00:26:04;;;;;;;2.33;1.80;;;11.50;99.90;;;;;;5078229;28;20229;-77
2022/09/21 00:28:30;;;;;;;2.08;1.80;;;11.50;99.90;;;;;;5069612;28;20204;-79
2022/09/21 00:31:01;;;;;;;2.17;1.60;;;11.50;99.90;;;;;;5070710;28;20199;-78
2022/09/21 00:33:26;;;;;;;2.60;1.70;;;11.50;99.90;;;;;;5079564;28;20199;-76
2022/09/21 00:35:54;;;;;;;2.90;1.73;;;11.40;99.90;;;;;;5072152;28;20221;-76
2022/09/21 00:38:20;;;;;;;3.88;1.77;;;11.40;99.90;;;;;;5081454;28;20168;-76
2022/09/21 00:40:45;;;;;;;3.87;1.73;;;11.40;99.90;;;;;;5062317;28;20192;-77
2022/09/21 00:43:18;;;;;;;2.63;1.73;;;11.40;99.90;;;;;;5068969;28;20204;-77
2022/09/21 00:45:49;;;;;;;3.80;1.73;;;11.40;99.90;;;;;;5073423;28;20293;-76
2022/09/21 00:48:14;;;;;;;2.77;1.83;;;11.40;99.90;;;;;;5079147;28;20199;-77
2022/09/21 00:50:47;;;;;;;4.20;1.80;;;11.30;99.90;;;;;;5079102;28;20175;-77
2022/09/21 00:53:15;;;;;;;4.50;1.90;;;11.30;99.90;;;;;;5079451;28;20207;-77
2022/09/21 00:55:49;;;;;;;2.67;2.00;;;11.20;99.90;;;;;;5080436;28;20172;-77
2022/09/21 00:58:23;;;;;;;2.77;2.10;;;11.20;99.90;;;;;;5078538;28;20203;-77
2022/09/21 01:00:48;;;;;;;2.90;1.77;;;11.20;99.90;;;;;;5064501;28;20169;-76
2022/09/21 01:03:14;;;;;;;2.10;1.80;;;11.20;99.90;;;;;;5080090;28;20323;-78
2022/09/21 01:05:40;;;;;;;3.47;2.10;;;11.20;99.90;;;;;;5084851;28;20219;-77
2022/09/21 01:08:08;;;;;;;4.67;2.30;;;11.10;99.90;;;;;;5086969;28;20186;-77
2022/09/21 01:10:54;;;;;;;3.05;1.77;;;11.10;99.90;;;;;;5094888;28;20190;-76
2022/09/21 01:14:01;;;;;;;4.30;1.80;;;11.10;99.90;;;;;;5075802;28;20219;-76
2022/09/21 01:16:32;;;;;;;2.10;1.83;;;11.10;99.90;;;;;;4998573;28;20182;-77
2022/09/21 01:19:21;;;;;;;1.90;1.70;;;11.10;99.90;;;;;;5072298;28;20176;-76
2022/09/21 01:22:23;;;;;;;2.20;1.70;;;11.10;99.90;;;;;;5052450;28;20208;-76
2022/09/21 01:25:06;;;;;;;4.30;2.15;;;11.00;99.90;;;;;;5065679;28;20171;-77
2022/09/21 01:27:36;;;;;;;2.37;1.90;;;10.90;99.90;;;;;;5075611;28;20169;-77
2022/09/21 01:30:05;;;;;;;4.17;2.07;;;10.90;99.90;;;;;;5081486;28;20172;-78
2022/09/21 01:32:43;;;;;;;2.93;1.90;;;10.90;99.90;;;;;;5078422;28;20168;-77
2022/09/21 01:35:20;;;;;;;3.87;1.80;;;10.80;99.90;;;;;;5072355;28;20243;-77
2022/09/21 01:38:01;;;;;;;4.03;2.00;;;10.70;99.90;;;;;;5070461;28;20230;-77
2022/09/21 01:40:35;;;;;;;5.77;2.00;;;10.70;99.90;;;;;;5075978;28;20175;-78
2022/09/21 01:43:04;;;;;;;2.17;1.80;;;10.70;99.90;;;;;;5067745;28;20240;-77
2022/09/21 01:45:34;;;;;;;3.37;2.00;;;10.70;99.90;;;;;;5068790;28;20192;-77
2022/09/21 01:48:02;;;;;;;2.37;1.80;;;10.60;99.90;;;;;;5069123;28;20168;-77
2022/09/21 01:50:35;;;;;;;3.87;2.10;;;10.60;99.90;;;;;;5065022;28;20191;-78
2022/09/21 01:53:10;;;;;;;5.17;1.90;;;10.50;99.90;;;;;;5069627;28;20216;-77
2022/09/21 01:55:50;;;;;;;2.03;1.60;;;10.50;99.90;;;;;;5071476;28;20206;-77
2022/09/21 01:58:23;;;;;;;2.50;1.70;;;10.40;99.90;;;;;;5089696;28;20177;-78
2022/09/21 02:00:51;;;;;;;2.47;1.80;;;10.40;99.90;;;;;;5083123;28;20200;-77
2022/09/21 02:03:28;;;;;;;2.17;1.80;;;10.30;99.90;;;;;;5081743;28;20194;-77
2022/09/21 02:05:57;;;;;;;2.17;1.80;;;10.30;99.90;;;;;;5076143;28;20176;-76
2022/09/21 02:08:26;;;;;;;2.50;1.60;;;10.30;99.90;;;;;;5079810;28;20188;-77
2022/09/21 02:10:53;;;;;;;2.73;1.80;;;10.30;99.90;;;;;;5094359;28;20190;-76
2022/09/21 02:13:24;;;;;;;2.00;1.60;;;10.30;99.90;;;;;;5082217;28;20211;-78
2022/09/21 02:16:01;;;;;;;2.43;1.77;;;10.30;99.90;;;;;;5063220;28;20174;-78
2022/09/21 02:18:41;;;;;;;2.60;1.80;;;10.30;99.90;;;;;;5070565;28;20188;-78
2022/09/21 02:21:22;;;;;;;4.03;1.93;;;10.30;99.90;;;;;;5058098;28;20260;-78
2022/09/21 02:24:12;;;;;;;2.77;1.80;;;10.30;99.90;;;;;;5071952;28;20186;-78
2022/09/21 02:26:49;;;;;;;2.27;1.73;;;10.30;99.90;;;;;;5067936;28;20186;-77
2022/09/21 02:29:44;;;;;;;2.27;1.60;;;10.30;99.90;;;;;;5074340;28;20277;-79
2022/09/21 02:32:49;;;;;;;2.57;1.70;;;10.30;99.90;;;;;;5061050;28;20219;-78
2022/09/21 02:35:41;;;;;;;2.53;1.70;;;10.30;99.90;;;;;;5062182;28;20183;-78
2022/09/21 02:38:06;;;;;;;2.50;2.07;;;10.30;99.90;;;;;;5050391;28;20215;-77
2022/09/21 02:40:39;;;;;;;3.43;2.23;;;10.30;99.90;;;;;;5079955;28;20195;-78
2022/09/21 02:43:19;;;;;;;3.73;2.20;;;10.30;99.90;;;;;;5079229;28;20179;-79
2022/09/21 02:45:51;;;;;;;4.17;2.40;;;10.20;99.90;;;;;;5083207;28;20202;-79
2022/09/21 02:48:29;;;;;;;4.10;2.50;;;10.20;99.90;;;;;;5074544;28;20187;-79
2022/09/21 02:51:04;;;;;;;2.70;2.30;;;10.20;99.90;;;;;;5074789;28;20174;-78
2022/09/21 02:53:35;;;;;;;3.20;2.20;;;10.20;99.90;;;;;;5081206;28;20207;-78
2022/09/21 02:56:05;;;;;;;3.63;2.30;;;10.30;99.90;;;;;;5082245;28;20175;-79
2022/09/21 02:58:39;;;;;;;3.30;2.40;;;10.20;99.90;;;;;;5076056;28;20165;-79
2022/09/21 03:01:09;;;;;;;4.40;2.20;;;10.20;99.90;;;;;;5093959;28;20200;-79
2022/09/21 03:03:35;;;;;;;2.37;2.17;;;10.20;99.90;;;;;;5077081;28;20155;-75
2022/09/21 03:06:03;;;;;;;4.63;2.53;;;10.20;99.90;;;;;;5083076;28;20218;-78
2022/09/21 03:08:29;;;;;;;5.33;3.20;;;10.20;99.90;;;;;;5089398;28;20195;-78
2022/09/21 03:10:56;;;;;;;3.43;2.40;;;10.20;99.90;;;;;;5081224;28;20171;-78
2022/09/21 03:13:24;;;;;;;3.47;2.27;;;10.20;99.90;;;;;;5081849;28;20211;-75
2022/09/21 03:16:01;;;;;;;5.10;2.20;;;10.10;99.90;;;;;;5082042;28;20168;-76
2022/09/21 03:18:32;;;;;;;5.67;2.03;;;10.10;99.90;;;;;;5095054;28;20197;-79
2022/09/21 03:20:59;;;;;;;2.13;1.83;;;10.10;99.90;;;;;;5081364;28;20512;-77
2022/09/21 03:23:25;;;;;;;2.40;1.90;;;10.00;99.90;;;;;;5081349;28;20176;-77
2022/09/21 03:25:53;;;;;;;3.40;1.80;;;10.00;99.90;;;;;;5079473;28;20286;-75
2022/09/21 03:28:20;;;;;;;3.57;1.90;;;10.00;99.90;;;;;;5077666;28;20270;-79
2022/09/21 03:30:50;;;;;;;3.53;2.07;;;10.00;99.90;;;;;;5070473;28;20233;-79
2022/09/21 03:33:17;;;;;;;3.03;2.07;;;9.90;99.90;;;;;;5080359;28;20290;-78
2022/09/21 03:35:44;;;;;;;2.87;2.00;;;9.90;99.90;;;;;;5087851;28;20281;-78
2022/09/21 03:38:12;;;;;;;3.30;2.00;;;9.90;99.90;;;;;;5069858;28;20179;-78
2022/09/21 03:40:39;;;;;;;3.30;2.10;;;9.90;99.90;;;;;;5069007;28;20217;-78
2022/09/21 03:43:05;;;;;;;2.40;2.10;;;9.90;99.90;;;;;;5068711;28;20223;-78
2022/09/21 03:45:31;;;;;;;3.13;2.00;;;9.90;99.90;;;;;;5069513;28;20176;-75
2022/09/21 03:47:58;;;;;;;2.97;1.70;;;9.80;99.90;;;;;;5079126;28;20172;-78
2022/09/21 03:50:27;;;;;;;3.93;2.30;;;9.80;99.90;;;;;;5096374;28;20195;-78
2022/09/21 03:53:00;;;;;;;3.50;2.00;;;9.80;99.90;;;;;;5076357;28;20237;-78
2022/09/21 03:55:26;;;;;;;3.87;2.60;;;9.80;99.90;;;;;;5080279;28;20210;-77
2022/09/21 03:57:52;;;;;;;4.97;2.53;;;9.80;99.90;;;;;;5060010;28;20212;-79
2022/09/21 04:00:20;;;;;;;2.90;2.10;;;9.80;99.90;;;;;;5069912;28;20247;-79
2022/09/21 04:02:46;;;;;;;3.30;2.40;;;9.70;99.90;;;;;;5079596;28;20203;-78
2022/09/21 04:05:14;;;;;;;3.67;2.40;;;9.70;99.90;;;;;;5079068;28;20184;-77
2022/09/21 04:07:44;;;;;;;3.90;3.00;;;9.80;99.90;;;;;;5067271;28;20184;-76
2022/09/21 04:10:15;;;;;;;5.67;3.13;;;9.70;99.90;;;;;;5071962;28;20180;-79
2022/09/21 04:12:42;;;;;;;4.60;3.27;;;9.70;99.90;;;;;;5077166;28;20179;-81
2022/09/21 04:15:15;;;;;;;4.67;3.50;;;9.70;99.90;;;;;;5070273;28;20199;-81
2022/09/21 04:17:43;;;;;;;6.20;4.07;;;9.70;99.90;;;;;;5078925;28;20208;-81
2022/09/21 04:20:08;;;;;;;5.73;4.10;;;9.70;99.90;;;;;;5078869;28;20188;-79
2022/09/21 04:22:35;;;;;;;13.07;8.37;;;9.70;99.90;;;;;;5074372;28;20176;-80
2022/09/21 04:25:04;;;;;;;14.13;10.27;;;9.70;99.90;;;;;;5079086;28;20257;-81
2022/09/21 04:27:33;;;;;;;8.40;6.53;;;9.80;99.90;;;;;;5093033;28;20184;-81
2022/09/21 04:30:01;;;;;;;6.47;4.90;;;9.80;99.90;;;;;;5059816;28;20176;-81
2022/09/21 04:32:27;;;;;;;6.17;4.90;;;9.80;99.90;;;;;;5089956;28;20179;-80
2022/09/21 04:34:53;;;;;;;5.73;4.43;;;9.90;99.90;;;;;;5064950;28;20307;-81
2022/09/21 04:37:18;;;;;;;9.13;7.17;;;9.90;99.90;;;;;;5005716;28;1106831;-81
2022/09/21 04:39:44;;;;;;;7.17;5.90;;;10.00;99.90;;;;;;5071734;28;20175;-82
2022/09/21 04:42:10;;;;;;;5.90;4.60;;;10.00;99.90;;;;;;5076792;28;20483;-79
2022/09/21 04:44:36;;;;;;;6.27;4.30;;;10.00;99.90;;;;;;5093924;28;20223;-82
2022/09/21 04:47:04;;;;;;;5.03;4.00;;;10.00;99.90;;;;;;5074439;28;20229;-82
2022/09/21 04:49:29;;;;;;;5.50;4.33;;;10.10;99.90;;;;;;5062047;28;20172;-82
2022/09/21 04:51:55;;;;;;;5.87;4.10;;;10.10;99.90;;;;;;5078630;28;20188;-83
2022/09/21 04:54:23;;;;;;;24.40;4.67;;;10.10;99.90;;;;;;5078868;28;20220;-82
2022/09/21 04:56:51;;;;;;;5.70;4.13;;;10.10;99.90;;;;;;5079089;28;20183;-79
2022/09/21 04:59:17;;;;;;;5.93;4.53;;;10.20;99.90;;;;;;5068632;28;20208;-78
2022/09/21 05:01:42;;;;;;;6.47;4.33;;;10.20;99.90;;;;;;5061933;28;20269;-80
2022/09/21 05:04:08;;;;;;;7.07;4.67;;;10.20;99.90;;;;;;5075092;28;20212;-79
2022/09/21 05:06:36;;;;;;;4.70;4.00;;;10.20;99.90;;;;;;5074060;28;20199;-79
2022/09/21 05:11:55;;;;;;;6.13;4.17;;;10.20;99.90;;;;;;5090211;28;20243;-77
2022/09/21 05:14:21;;;;;;;5.67;3.97;;;10.20;99.90;;;;;;5071226;28;20196;-77
2022/09/21 05:16:48;;;;;;;4.93;4.10;;;10.30;99.90;;;;;;5059359;28;20176;-76
2022/09/21 05:19:18;;;;;;;5.93;4.60;;;10.20;99.90;;;;;;5078943;28;20191;-75
2022/09/21 05:21:45;;;;;;;6.80;4.37;;;10.20;99.90;;;;;;5073983;28;20194;-77
2022/09/21 05:24:11;;;;;;;6.73;4.67;;;10.20;99.90;;;;;;5070793;28;20199;-76
2022/09/21 05:26:37;;;;;;;6.83;4.73;;;10.30;99.90;;;;;;5058939;28;20275;-77
2022/09/21 05:29:03;;;;;;;5.97;4.57;;;10.20;99.90;;;;;;5065348;28;20222;-76
2022/09/21 05:31:38;;;;;;;5.67;4.30;;;10.20;99.90;;;;;;5075851;28;20217;-78
2022/09/21 05:34:09;;;;;;;8.00;4.70;;;10.20;99.90;;;;;;5074969;28;20355;-76
2022/09/21 05:36:50;;;;;;;9.07;5.03;;;10.20;99.90;;;;;;5070703;28;20271;-77
2022/09/21 05:39:16;;;;;;;7.30;4.13;;;10.20;99.90;;;;;;5077707;28;20190;-75
2022/09/21 05:41:44;;;;;;;8.57;4.60;;;10.20;99.90;;;;;;5068955;28;20263;-77
2022/09/21 05:44:13;;;;;;;6.97;3.87;;;10.20;99.90;;;;;;5078689;28;20203;-77
2022/09/21 05:46:41;;;;;;;5.57;4.00;;;10.20;99.90;;;;;;5078689;28;20252;-77
2022/09/21 05:49:13;;;;;;;5.47;4.70;;;10.10;99.90;;;;;;5065001;28;20412;-77
2022/09/21 05:51:49;;;;;;;5.37;4.30;;;10.20;99.90;;;;;;5057752;28;20161;-77
2022/09/21 05:54:17;;;;;;;8.63;6.10;;;10.20;99.90;;;;;;5072387;28;20219;-78
2022/09/21 05:57:05;;;;;;;7.80;5.00;;;10.10;99.90;;;;;;5067696;28;20180;-77
2022/09/21 05:59:34;;;;;;;7.87;4.87;;;10.10;99.90;;;;;;5059934;28;20187;-76
2022/09/21 06:02:37;;;;;;;6.40;4.70;;;10.10;99.90;;;;;;5078149;28;20283;-77
2022/09/21 06:05:10;;;;;;;7.00;5.30;;;10.10;99.90;;;;;;5070693;28;20180;-76
2022/09/21 06:07:36;;;;;;;6.20;4.73;;;10.10;99.90;;;;;;5071983;28;20247;-75
2022/09/21 06:10:01;;;;;;;13.53;5.37;;;10.10;99.90;;;;;;5092663;28;20199;-76
2022/09/21 06:12:27;;;;;;;8.43;5.10;;;10.10;99.90;;;;;;5077320;28;20172;-77
2022/09/21 06:14:54;;;;;;;7.03;5.10;;;10.10;99.90;;;;;;5059672;28;20298;-76
2022/09/21 06:17:20;;;;;;;6.50;5.33;;;10.10;99.90;;;;;;5068088;28;20175;-76
2022/09/21 06:19:46;;;;;;;8.03;5.70;;;10.20;99.90;;;;;;5070222;28;20226;-76
2022/09/21 06:22:13;;;;;;;7.27;5.30;;;10.10;99.90;;;;;;5075968;28;20232;-76
2022/09/21 06:24:39;;;;;;;16.13;11.27;;;10.20;99.90;;;;;;5071995;28;20165;-76
2022/09/21 06:27:07;;;;;;;10.07;7.67;;;10.20;99.90;;;;;;5070831;28;20186;-76
2022/09/21 06:29:32;;;;;;;10.37;7.17;;;10.30;99.90;;;;;;5077684;28;20172;-74
2022/09/21 06:31:58;;;;;;;8.43;6.03;;;10.30;99.90;;;;;;5061067;28;20204;-76
2022/09/21 06:34:26;;;;;;;10.87;5.53;;;10.30;99.90;;;;;;5077145;28;20211;-76
2022/09/21 06:36:52;;;;;;;6.87;5.10;;;10.30;99.90;;;;;;5077322;28;20215;-76
2022/09/21 06:39:20;;;;;;;9.70;5.53;;;10.30;99.90;;;;;;5078803;28;20183;-76
2022/09/21 06:41:47;;;;;;;7.40;5.63;;;10.40;99.90;;;;;;5079300;28;20297;-77
2022/09/21 06:44:13;;;;;;;9.33;5.67;;;10.40;99.90;;;;;;5057672;28;20223;-76
2022/09/21 06:46:41;;;;;;;7.37;5.37;;;10.40;99.90;;;;;;5067343;28;20204;-76
2022/09/21 06:49:06;;;;;;;7.80;5.73;;;10.40;99.90;;;;;;5077385;28;20204;-76
2022/09/21 06:51:32;;;;;;;10.80;5.97;;;10.50;99.90;;;;;;5058489;28;20177;-76
2022/09/21 06:53:58;;;;;;;8.23;6.10;;;10.50;99.90;;;;;;5057697;28;20209;-76
2022/09/21 06:56:24;;;;;;;11.87;6.60;;;10.60;99.90;;;;;;5057610;28;20267;-75
2022/09/21 06:58:53;;;;;;;8.50;6.00;;;10.60;99.90;;;;;;5063121;28;20186;-76
2022/09/21 07:01:19;;;;;;;8.73;6.00;;;10.70;99.90;;;;;;5091355;28;20191;-73
2022/09/21 07:03:49;;;;;;;8.13;6.17;;;10.70;99.90;;;;;;5086968;28;20227;-76
2022/09/21 07:06:19;;;;;;;7.30;5.90;;;10.80;99.90;;;;;;5078025;28;20180;-75
2022/09/21 07:08:46;;;;;;;7.97;6.07;;;10.90;99.90;;;;;;5077409;28;20183;-75
2022/09/21 07:11:12;;;;;;;7.75;6.10;;;10.90;99.90;;;;;;5077261;28;20208;-75
2022/09/21 07:13:39;;;;;;;10.27;7.70;;;11.00;99.90;;;;;;5062617;28;20272;-76
2022/09/21 07:16:06;;;;;;;8.93;7.05;;;11.00;99.90;;;;;;5057862;28;20169;-76
2022/09/21 07:18:35;;;;;;;9.50;6.75;;;11.00;99.90;;;;;;5059041;28;20168;-76
2022/09/21 07:21:06;;;;;;;7.75;6.63;;;11.10;99.90;;;;;;5065125;28;20196;-76
2022/09/21 07:23:37;;;;;;;9.70;7.57;;;11.10;99.90;;;;;;5073043;28;20463;-76
2022/09/21 07:26:13;;;;;;;8.80;7.70;;;11.20;99.90;;;;;;5073391;28;20179;-77
2022/09/21 07:28:38;;;;;;;9.65;7.45;;;11.30;99.90;;;;;;5069589;28;20258;-75
2022/09/21 07:31:12;;;;;;;9.88;7.60;;;11.30;99.90;;;;;;5080614;28;20222;-76
2022/09/21 07:33:45;;;;;;;9.45;7.68;;;11.40;99.90;;;;;;5080742;28;20214;-75
2022/09/21 07:36:13;;;;;;;9.00;7.40;;;11.40;99.90;;;;;;5075184;28;20183;-77
2022/09/21 07:38:44;;;;;;;12.60;9.23;;;11.40;99.90;;;;;;5074879;28;20176;-76
2022/09/21 07:41:13;;;;;;;9.63;8.37;;;11.50;99.90;;;;;;5079032;28;20172;-76
2022/09/21 07:43:41;;;;;;;9.25;7.50;;;11.50;99.90;;;;;;5080959;28;20282;-75
2022/09/21 07:46:09;;;;;;;12.63;8.73;;;11.50;99.90;;;;;;5079966;28;20184;-76
2022/09/21 07:48:34;;;;;;;9.77;8.30;;;11.60;99.90;;;;;;5079817;28;20172;-75
2022/09/21 07:51:04;;;;;;;10.45;8.68;;;11.60;99.90;;;;;;5079837;28;20194;-76
2022/09/21 07:53:31;;;;;;;13.10;8.73;;;11.70;99.90;;;;;;5061096;28;20196;-75
2022/09/21 07:56:04;;;;;;;9.90;8.32;;;11.70;99.90;;;;;;5072254;28;20405;-75
2022/09/21 08:01:15;;;;;;;12.73;9.75;;;11.90;99.90;;;;;;5097463;28;20228;-75
2022/09/21 08:03:43;;;;;;;10.85;8.98;;;11.90;99.90;;;;;;5079865;28;20207;-74
2022/09/21 08:06:08;;;;;;;11.40;8.32;;;11.90;99.90;;;;;;5080477;28;20180;-75
2022/09/21 08:08:38;;;;;;;9.85;8.40;;;12.00;99.90;;;;;;5079998;28;20250;-75
2022/09/21 08:11:05;;;;;;;11.13;8.52;;;12.00;99.90;;;;;;5081235;28;20243;-75
2022/09/21 08:13:30;;;;;;;13.18;9.68;;;12.10;99.90;;;;;;5080049;28;20207;-74
2022/09/21 08:16:03;;;;;;;13.52;9.20;;;12.20;99.90;;;;;;5092256;28;20152;-75
2022/09/21 08:18:31;;;;;;;11.60;10.02;;;12.10;99.90;;;;;;5092758;28;20180;-76
2022/09/21 08:20:59;;;;;;;12.43;10.20;;;12.20;99.90;;;;;;5079935;28;20179;-75
2022/09/21 08:23:27;;;;;;;12.07;9.88;;;12.20;99.90;;;;;;5061991;28;20224;-72
2022/09/21 08:26:00;;;;;;;10.88;9.35;;;12.20;99.90;;;;;;5062431;28;20195;-72
2022/09/21 08:28:27;;;;;;;12.45;9.18;;;12.30;99.90;;;;;;5096293;28;20186;-73
2022/09/21 08:30:53;;;;;;;14.48;9.57;;;12.20;99.90;;;;;;5084377;28;20233;-75
2022/09/21 08:33:19;;;;;;;12.57;9.75;;;12.20;99.90;;;;;;5079692;28;20176;-73
2022/09/21 08:35:57;;;;;;;11.52;9.00;;;12.30;99.90;;;;;;5080303;28;20239;-74
2022/09/21 08:38:23;;;;;;;9.65;8.60;;;12.30;99.90;;;;;;5081289;28;20264;-75
2022/09/21 08:40:51;;;;;;;9.23;7.63;;;12.40;99.90;;;;;;5080713;28;20206;-73
2022/09/21 08:43:40;;;;;;;8.02;7.20;;;12.40;99.90;;;;;;5065429;28;20260;-71
2022/09/21 08:46:12;;;;;;;9.52;8.30;;;12.40;99.90;;;;;;5062030;28;20251;-73
2022/09/21 08:48:48;;;;;;;9.88;7.90;;;12.50;99.90;;;;;;5075510;28;20179;-74
2022/09/21 08:51:23;;;;;;;11.18;7.90;;;12.50;99.90;;;;;;5078251;28;20192;-71
2022/09/21 08:53:55;;;;;;;9.35;7.95;;;12.60;99.90;;;;;;5079080;28;20274;-71
2022/09/21 08:56:24;;;;;;;9.98;7.68;;;12.70;99.90;;;;;;5078732;28;20176;-72
2022/09/21 08:58:50;;;;;;;9.43;8.07;;;12.70;99.90;;;;;;5078349;28;20175;-73
2022/09/21 09:01:19;;;;;;;9.10;7.35;;;12.80;99.90;;;;;;5076926;28;20178;-72
2022/09/21 09:04:06;;;;;;;8.38;7.35;;;12.80;99.90;;;;;;5082555;28;20198;-72
2022/09/21 09:06:54;;;;;;;9.07;6.88;;;12.90;99.90;;;;;;5081622;28;20176;-72
2022/09/21 09:09:56;;;;;;;9.55;7.47;;;13.00;99.90;;;;;;5079456;28;20180;-73
2022/09/21 09:12:48;;;;;;;9.50;7.20;;;13.10;99.90;;;;;;5078961;28;20183;-73
2022/09/21 09:15:35;;;;;;;9.88;7.05;;;13.20;99.90;;;;;;5074390;28;20204;-73
2022/09/21 09:18:15;;;;;;;9.95;7.57;;;13.30;99.90;;;;;;5073507;28;20261;-73
2022/09/21 09:20:46;;;;;;;8.35;6.68;;;13.40;99.90;;;;;;5078167;28;20239;-71
2022/09/21 09:23:20;;;;;;;8.48;6.93;;;13.60;99.90;;;;;;5058299;28;20281;-73
2022/09/21 09:25:53;;;;;;;7.57;6.43;;;13.70;99.90;;;;;;5076605;28;20211;-74
2022/09/21 09:28:59;;;;;;;7.82;6.25;;;13.80;99.90;;;;;;5075487;28;20172;-73
2022/09/21 09:31:31;;;;;;;6.82;5.28;;;13.90;99.90;;;;;;5053163;28;20187;-74
2022/09/21 09:34:21;;;;;;;6.80;5.72;;;14.10;99.90;;;;;;5078385;28;20203;-74
2022/09/21 09:36:53;;;;;;;7.07;5.22;;;14.30;99.90;;;;;;5057053;28;20203;-73
2022/09/21 09:39:19;;;;;;;8.30;5.22;;;14.70;99.90;;;;;;5069376;28;20267;-74
2022/09/21 09:41:54;;;;;;;8.27;5.25;;;15.40;99.90;;;;;;5075234;28;20271;-73
2022/09/21 09:44:38;;;;;;;6.07;4.57;;;16.10;99.90;;;;;;5060732;28;20198;-75
2022/09/21 09:47:23;;;;;;;5.05;3.70;;;16.80;99.90;;;;;;5075002;28;20175;-73
2022/09/21 09:50:13;;;;;;;4.25;3.85;;;17.60;99.90;;;;;;5081055;28;20168;-73
2022/09/21 09:52:42;;;;;;;4.97;3.47;;;18.40;99.90;;;;;;5082799;28;20156;-74
2022/09/21 09:55:22;;;;;;;5.40;3.67;;;18.80;99.90;;;;;;5079817;28;20240;-74
2022/09/21 09:57:48;;;;;;;4.63;3.78;;;19.40;99.90;;;;;;5080038;28;20195;-73
2022/09/21 10:00:17;;;;;;;5.30;3.47;;;19.90;99.90;;;;;;5085624;28;20184;-74
2022/09/21 10:02:55;;;;;;;4.60;3.15;;;20.40;99.90;;;;;;5073996;28;20262;-75
2022/09/21 10:05:22;;;;;;;5.35;3.05;;;20.80;99.90;;;;;;5065988;28;20168;-74
2022/09/21 10:07:51;;;;;;;5.38;3.33;;;21.10;99.90;;;;;;5083753;28;20172;-72
2022/09/21 10:10:32;;;;;;;3.35;2.65;;;21.40;99.90;;;;;;5082224;28;20196;-74
2022/09/21 10:13:04;;;;;;;4.78;2.50;;;21.70;99.90;;;;;;5069628;28;20180;-73
2022/09/21 10:15:29;;;;;;;3.13;2.67;;;22.00;99.90;;;;;;5080969;28;20222;-72
2022/09/21 10:18:14;;;;;;;4.32;2.80;;;22.10;99.90;;;;;;5083452;28;20188;-71
2022/09/21 10:21:11;;;;;;;3.38;2.30;;;22.20;99.90;;;;;;5070966;28;20267;-76
2022/09/21 10:23:45;;;;;;;3.17;2.03;;;22.40;99.90;;;;;;5048497;28;20223;-76
2022/09/21 10:26:13;;;;;;;2.80;1.60;;;22.70;99.90;;;;;;5077651;28;20164;-72
2022/09/21 10:28:58;;;;;;;2.33;1.75;;;22.90;99.90;;;;;;5065691;28;20173;-74
2022/09/21 10:31:29;;;;;;;3.13;1.80;;;23.10;99.90;;;;;;5067160;28;20312;-75
2022/09/21 10:33:54;;;;;;;3.90;1.90;;;23.20;99.90;;;;;;5084003;28;20191;-74
2022/09/21 10:36:28;;;;;;;3.35;1.70;;;23.20;99.90;;;;;;5085180;28;20192;-76
2022/09/21 10:38:53;;;;;;;2.50;1.52;;;23.30;99.90;;;;;;5078802;28;20203;-73
2022/09/21 10:41:19;;;;;;;2.28;1.45;;;23.40;99.90;;;;;;5078753;28;20233;-71
2022/09/21 10:43:45;;;;;;;2.30;1.55;;;23.50;99.90;;;;;;5063227;28;20197;-74
2022/09/21 10:46:13;;;;;;;2.50;1.50;;;23.60;99.90;;;;;;5084206;28;20202;-75
2022/09/21 10:48:45;;;;;;;2.55;1.70;;;23.70;99.90;;;;;;5064626;28;20176;-75
2022/09/21 10:51:27;;;;;;;3.95;1.40;;;23.80;99.90;;;;;;5077707;28;20192;-74
2022/09/21 10:53:56;;;;;;;3.15;1.50;;;23.80;99.90;;;;;;5090682;28;20192;-74
2022/09/21 10:56:22;;;;;;;2.90;1.45;;;23.70;99.90;;;;;;5071228;28;20188;-74
2022/09/21 10:59:19;;;;;;;2.63;1.23;;;23.70;99.90;;;;;;5066878;28;20188;-74
2022/09/21 11:01:50;;;;;;;1.55;1.02;;;23.70;99.90;;;;;;5067587;28;20172;-73
2022/09/21 11:04:40;;;;;;;3.22;1.20;;;23.80;99.90;;;;;;5081417;28;20200;-74
2022/09/21 11:07:12;;;;;;;4.55;1.30;;;23.80;99.90;;;;;;5106575;28;20176;-73
2022/09/21 11:09:48;;;;;;;2.05;1.42;;;23.80;99.90;;;;;;5086453;28;20182;-73
2022/09/21 11:12:40;;;;;;;3.67;1.50;;;23.80;99.90;;;;;;5077106;28;20207;-75
2022/09/21 11:15:19;;;;;;;3.22;1.60;;;23.60;99.90;;;;;;5078730;28;20199;-73
2022/09/21 11:18:00;;;;;;;2.70;1.55;;;23.60;99.90;;;;;;5072769;28;20296;-75
2022/09/21 11:20:50;;;;;;;2.47;1.33;;;23.50;99.90;;;;;;5068006;28;20173;-75
2022/09/21 11:23:53;;;;;;;5.00;1.70;;;23.40;99.90;;;;;;5065862;28;20180;-74
2022/09/21 11:26:27;;;;;;;1.85;1.30;;;23.40;99.90;;;;;;5080925;28;20245;-73
2022/09/21 11:29:14;;;;;;;2.17;1.33;;;23.40;99.90;;;;;;5083523;28;20247;-74
2022/09/21 11:31:43;;;;;;;3.63;1.30;;;23.40;99.90;;;;;;5085208;28;20330;-73
2022/09/21 11:34:43;;;;;;;2.30;1.40;;;23.40;99.90;;;;;;5090361;28;20298;-72
2022/09/21 11:37:09;;;;;;;2.33;1.50;;;23.40;99.90;;;;;;5082189;28;20204;-74
2022/09/21 11:40:05;;;;;;;3.17;1.35;;;23.40;99.90;;;;;;5080133;28;20336;-75
2022/09/21 11:42:39;;;;;;;1.70;1.27;;;23.30;99.90;;;;;;5078089;28;20176;-75
2022/09/21 11:45:21;;;;;;;1.65;1.20;;;23.20;99.90;;;;;;5062453;28;20169;-74
2022/09/21 11:48:15;;;;;;;0.95;0.80;;;23.10;99.90;;;;;;5081121;28;20203;-73
2022/09/21 11:51:01;;;;;;;1.63;1.10;;;23.00;99.90;;;;;;5081730;28;20268;-74
2022/09/21 11:53:42;;;;;;;1.95;0.93;;;23.00;99.90;;;;;;5085057;28;20172;-75
2022/09/21 11:56:31;;;;;;;1.30;0.90;;;23.10;99.90;;;;;;5084293;28;20174;-75
2022/09/21 11:59:05;;;;;;;1.08;0.80;;;23.20;99.90;;;;;;5064712;28;20161;-74
2022/09/21 12:02:02;;;;;;;1.35;1.13;;;23.30;99.90;;;;;;5079103;28;20168;-74
2022/09/21 12:04:39;;;;;;;1.35;1.05;;;23.50;99.90;;;;;;5079262;28;20188;-75
2022/09/21 12:07:37;;;;;;;1.83;0.88;;;23.60;99.90;;;;;;5070639;28;20168;-75
2022/09/21 12:10:16;;;;;;;1.50;0.88;;;23.60;99.90;;;;;;5056857;28;21313;-74
2022/09/21 12:13:02;;;;;;;2.25;0.95;;;23.60;99.90;;;;;;5081127;28;20180;-71
2022/09/21 12:15:48;;;;;;;2.05;1.00;;;23.60;99.90;;;;;;5088837;28;20203;-74
2022/09/21 12:18:26;;;;;;;1.88;0.98;;;23.70;99.90;;;;;;5088051;28;20188;-74
2022/09/21 12:21:12;;;;;;;2.53;1.00;;;23.80;99.90;;;;;;5084671;28;20183;-74
2022/09/21 12:23:52;;;;;;;2.13;0.90;;;23.90;99.90;;;;;;5084731;28;20242;-72
2022/09/21 12:26:23;;;;;;;1.83;0.80;;;23.90;99.90;;;;;;5082195;28;20187;-75
2022/09/21 12:28:59;;;;;;;0.80;0.75;;;23.90;99.90;;;;;;5081349;28;20192;-74
2022/09/21 12:31:50;;;;;;;2.28;0.95;;;23.80;99.90;;;;;;5081462;28;20246;-73
2022/09/21 12:34:22;;;;;;;1.90;0.80;;;23.80;99.90;;;;;;5059598;28;20291;-74
2022/09/21 12:37:03;;;;;;;2.03;0.70;;;23.90;99.90;;;;;;5076399;28;20215;-75
2022/09/21 12:39:41;;;;;;;1.67;0.80;;;23.90;99.90;;;;;;5075373;28;20183;-74
2022/09/21 12:42:12;;;;;;;1.33;0.60;;;24.00;99.90;;;;;;5078525;28;20168;-74
2022/09/21 12:44:50;;;;;;;1.88;0.75;;;24.00;99.90;;;;;;5081623;28;20200;-74
2022/09/21 12:47:47;;;;;;;1.55;0.75;;;24.10;99.90;;;;;;5079177;28;20171;-74
2022/09/21 12:50:19;;;;;;;0.90;0.43;;;24.00;99.90;;;;;;5066118;28;20193;-74
2022/09/21 12:52:48;;;;;;;1.92;0.80;;;23.80;99.90;;;;;;5074858;28;20173;-75
2022/09/21 12:55:27;;;;;;;1.15;0.65;;;23.80;99.90;;;;;;5075965;28;20238;-75
2022/09/21 12:58:22;;;;;;;1.25;0.70;;;23.70;99.90;;;;;;5079869;28;20188;-74
2022/09/21 13:01:00;;;;;;;1.02;0.60;;;23.70;99.90;;;;;;5073942;28;20168;-74
2022/09/21 13:03:41;;;;;;;1.23;0.60;;;23.70;99.90;;;;;;5071984;28;20199;-75
2022/09/21 13:06:42;;;;;;;1.02;0.40;;;23.70;99.90;;;;;;5088467;28;20197;-75
2022/09/21 13:09:11;;;;;;;1.05;0.50;;;23.80;99.90;;;;;;5064118;28;20164;-77
2022/09/21 13:11:59;;;;;;;1.33;0.60;;;23.70;99.90;;;;;;5082808;28;20219;-72
2022/09/21 13:14:33;;;;;;;1.38;0.70;;;23.60;99.90;;;;;;5087896;28;20295;-75
2022/09/21 13:17:03;;;;;;;0.80;0.50;;;23.50;99.90;;;;;;5085005;28;20192;-74
2022/09/21 13:19:34;;;;;;;1.05;0.68;;;23.50;99.90;;;;;;5059307;28;20279;-75
2022/09/21 13:22:18;;;;;;;1.38;0.70;;;23.50;99.90;;;;;;5072804;28;20223;-73